createdAt,value
2018-05-03T00:00:09.358Z,15.17
2018-05-03T00:02:36.779Z,18.40
2018-05-03T00:05:04.130Z,13.97
2018-05-03T00:07:31.538Z,18.57
2018-05-03T00:09:58.890Z,19.80
2018-05-03T00:12:26.294Z,17.80
2018-05-03T00:14:53.703Z,19.70
2018-05-03T00:17:21.052Z,18.20
2018-05-03T00:19:48.435Z,21.80
2018-05-03T00:22:15.899Z,19.33
2018-05-03T00:24:43.242Z,14.07
2018-05-03T00:27:10.598Z,20.00
2018-05-03T00:29:38.071Z,13.50
2018-05-03T00:32:05.426Z,15.80
2018-05-03T00:34:32.774Z,15.70
2018-05-03T00:37:00.163Z,17.07
2018-05-03T00:39:27.682Z,16.80
2018-05-03T00:41:55.036Z,16.93
2018-05-03T00:44:22.506Z,15.43
2018-05-03T00:46:49.846Z,18.77
2018-05-03T00:49:17.199Z,19.50
2018-05-03T00:51:44.585Z,14.20
2018-05-03T00:54:17.968Z,16.20
2018-05-03T00:56:45.331Z,14.03
2018-05-03T00:59:12.691Z,18.80
2018-05-03T01:01:40.072Z,15.50
2018-05-03T01:04:07.439Z,16.47
2018-05-03T01:06:34.779Z,13.23
2018-05-03T01:09:02.182Z,16.57
2018-05-03T01:11:29.567Z,15.07
2018-05-03T01:13:57.006Z,15.50
2018-05-03T01:16:24.408Z,18.07
2018-05-03T01:18:51.823Z,17.30
2018-05-03T01:21:19.197Z,18.60
2018-05-03T01:23:46.602Z,21.57
2018-05-03T01:26:13.998Z,16.77
2018-05-03T01:28:41.342Z,18.30
2018-05-03T01:31:08.714Z,26.07
2018-05-03T01:33:36.106Z,17.13
2018-05-03T01:36:09.457Z,19.33
2018-05-03T01:38:36.831Z,18.03
2018-05-03T01:41:04.182Z,18.03
2018-05-03T01:43:31.550Z,20.27
2018-05-03T01:45:58.954Z,21.60
2018-05-03T01:48:26.340Z,20.60
2018-05-03T01:50:53.759Z,20.67
2018-05-03T01:53:21.158Z,19.17
2018-05-03T01:55:48.656Z,20.07
2018-05-03T01:58:16.008Z,20.43
2018-05-03T02:00:43.424Z,18.60
2018-05-03T02:03:10.803Z,17.30
2018-05-03T02:05:38.242Z,20.10
2018-05-03T02:08:05.671Z,16.53
2018-05-03T02:10:33.032Z,19.37
2018-05-03T02:13:00.380Z,19.67
2018-05-03T02:15:30.803Z,17.37
2018-05-03T02:17:58.184Z,17.30
2018-05-03T02:20:25.572Z,20.17
2018-05-03T02:22:52.938Z,17.20
2018-05-03T02:25:20.290Z,16.13
2018-05-03T02:27:47.661Z,16.83
2018-05-03T02:30:15.019Z,17.23
2018-05-03T02:32:42.394Z,17.20
2018-05-03T02:35:10.271Z,17.90
2018-05-03T02:37:37.628Z,19.10
2018-05-03T02:40:05.210Z,17.40
2018-05-03T02:42:32.575Z,20.70
2018-05-03T02:44:59.999Z,19.50
2018-05-03T02:47:27.387Z,17.47
2018-05-03T02:49:54.794Z,17.50
2018-05-03T02:52:22.150Z,20.13
2018-05-03T02:54:49.530Z,19.70
2018-05-03T02:57:22.846Z,21.57
2018-05-03T02:59:56.126Z,16.03
2018-05-03T03:02:54.008Z,19.73
2018-05-03T03:05:33.144Z,17.87
2018-05-03T03:08:24.958Z,20.67
2018-05-03T03:11:04.050Z,19.27
2018-05-03T03:13:53.889Z,20.60
2018-05-03T03:16:32.972Z,17.87
2018-05-03T03:19:12.298Z,18.63
2018-05-03T03:21:51.471Z,23.80
2018-05-03T03:24:30.836Z,19.43
2018-05-03T03:27:09.928Z,21.03
2018-05-03T03:29:43.202Z,21.17
2018-05-03T03:32:16.641Z,16.97
2018-05-03T03:34:44.076Z,25.20
2018-05-03T03:37:26.356Z,26.07
2018-05-03T03:40:05.397Z,19.10
2018-05-03T03:42:35.501Z,28.37
2018-05-03T03:45:02.897Z,24.10
2018-05-03T03:47:30.308Z,27.37
2018-05-03T03:49:57.716Z,25.17
2018-05-03T03:52:25.162Z,20.37
2018-05-03T03:54:52.540Z,25.20
2018-05-03T03:57:19.970Z,23.63
2018-05-03T03:59:47.400Z,24.00
2018-05-03T04:02:14.791Z,24.43
2018-05-03T04:04:42.232Z,22.57
2018-05-03T04:07:09.642Z,21.73
2018-05-03T04:09:36.994Z,24.00
2018-05-03T04:12:04.339Z,26.93
2018-05-03T04:14:31.743Z,21.80
2018-05-03T04:16:59.122Z,23.50
2018-05-03T04:19:32.487Z,25.23
2018-05-03T04:22:05.756Z,21.97
2018-05-03T04:24:39.021Z,21.93
2018-05-03T04:27:06.465Z,22.60
2018-05-03T04:29:33.862Z,20.73
2018-05-03T04:32:01.226Z,21.43
2018-05-03T04:34:28.714Z,21.57
2018-05-03T04:36:56.095Z,21.43
2018-05-03T04:39:23.550Z,25.77
2018-05-03T04:41:50.939Z,20.53
2018-05-03T04:44:18.306Z,21.17
2018-05-03T04:46:45.678Z,20.23
2018-05-03T04:49:13.051Z,20.03
2018-05-03T04:51:40.513Z,20.30
2018-05-03T04:54:07.949Z,20.90
2018-05-03T04:56:35.274Z,22.90
2018-05-03T04:59:02.670Z,23.27
2018-05-03T05:01:30.080Z,26.73
2018-05-03T05:03:57.436Z,23.90
2018-05-03T05:06:24.818Z,24.43
2018-05-03T05:08:52.217Z,23.77
2018-05-03T05:11:19.652Z,23.80
2018-05-03T05:13:47.116Z,23.50
2018-05-03T05:16:14.502Z,24.50
2018-05-03T05:18:41.905Z,26.20
2018-05-03T05:21:09.486Z,24.63
2018-05-03T05:23:36.863Z,26.67
2018-05-03T05:26:04.401Z,28.10
2018-05-03T05:28:31.755Z,24.27
2018-05-03T05:30:59.180Z,25.10
2018-05-03T05:33:26.614Z,29.73
2018-05-03T05:35:53.980Z,28.60
2018-05-03T05:38:21.397Z,27.73
2018-05-03T05:40:48.824Z,31.73
2018-05-03T05:43:16.188Z,20.57
2018-05-03T05:45:43.544Z,22.10
2018-05-03T05:48:10.923Z,24.27
2018-05-03T05:50:38.348Z,22.40
2018-05-03T05:53:05.772Z,23.73
2018-05-03T05:55:33.164Z,21.67
2018-05-03T05:58:00.548Z,29.07
2018-05-03T06:00:28.446Z,21.03
2018-05-03T06:02:55.932Z,20.73
2018-05-03T06:05:23.295Z,20.67
2018-05-03T06:07:50.666Z,21.00
2018-05-03T06:10:18.060Z,25.03
2018-05-03T06:12:45.432Z,21.80
2018-05-03T06:15:12.843Z,23.10
2018-05-03T06:17:40.194Z,17.97
2018-05-03T06:20:07.615Z,17.97
2018-05-03T06:22:35.009Z,18.40
2018-05-03T06:25:02.393Z,20.90
2018-05-03T06:27:29.936Z,16.67
2018-05-03T06:29:57.297Z,21.53
2018-05-03T06:32:24.745Z,17.63
2018-05-03T06:34:52.278Z,16.33
2018-05-03T06:37:19.677Z,15.53
2018-05-03T06:39:47.119Z,15.37
2018-05-03T06:42:14.525Z,17.40
2018-05-03T06:44:41.930Z,13.73
2018-05-03T06:47:09.317Z,16.97
2018-05-03T06:49:36.659Z,12.83
2018-05-03T06:52:04.065Z,13.97
2018-05-03T06:54:31.491Z,18.60
2018-05-03T06:57:00.937Z,12.40
2018-05-03T06:59:28.323Z,14.23
2018-05-03T07:01:55.669Z,17.27
2018-05-03T07:04:23.101Z,13.30
2018-05-03T07:06:50.435Z,12.77
2018-05-03T07:09:17.824Z,15.00
2018-05-03T07:11:45.227Z,13.90
2018-05-03T07:14:12.569Z,16.83
2018-05-03T07:16:39.995Z,13.23
2018-05-03T07:19:07.416Z,12.10
2018-05-03T07:21:34.761Z,13.30
2018-05-03T07:24:02.151Z,14.53
2018-05-03T07:26:29.562Z,12.97
2018-05-03T07:28:56.936Z,16.17
2018-05-03T07:31:24.336Z,11.67
2018-05-03T07:33:51.715Z,10.97
2018-05-03T07:36:19.079Z,13.60
2018-05-03T07:38:46.460Z,11.10
2018-05-03T07:41:13.874Z,10.80
2018-05-03T07:43:41.263Z,12.57
2018-05-03T07:46:08.699Z,13.53
2018-05-03T07:48:36.170Z,13.90
2018-05-03T07:51:03.515Z,13.90
2018-05-03T07:53:30.917Z,12.83
2018-05-03T07:55:58.363Z,11.60
2018-05-03T07:58:25.710Z,14.00
2018-05-03T08:00:53.070Z,15.43
2018-05-03T08:03:20.520Z,15.30
2018-05-03T08:05:47.899Z,11.13
2018-05-03T08:08:15.284Z,17.50
2018-05-03T08:10:42.645Z,14.03
2018-05-03T08:13:10.020Z,12.97
2018-05-03T08:15:37.505Z,19.77
2018-05-03T08:18:04.987Z,15.97
2018-05-03T08:20:32.390Z,18.73
2018-05-03T08:22:59.772Z,12.20
2018-05-03T08:25:27.179Z,13.33
2018-05-03T08:27:54.548Z,17.53
2018-05-03T08:30:21.936Z,13.43
2018-05-03T08:32:49.319Z,17.40
2018-05-03T08:35:16.781Z,17.63
2018-05-03T08:37:44.164Z,15.80
2018-05-03T08:40:11.673Z,15.20
2018-05-03T08:42:39.048Z,18.60
2018-05-03T08:45:06.400Z,12.73
2018-05-03T08:47:33.785Z,13.73
2018-05-03T08:50:01.172Z,14.80
2018-05-03T08:52:28.584Z,13.10
2018-05-03T08:54:55.978Z,15.83
2018-05-03T08:57:23.371Z,16.00
2018-05-03T08:59:50.740Z,15.67
2018-05-03T09:02:18.139Z,15.30
2018-05-03T09:04:45.625Z,14.73
2018-05-03T09:07:13.084Z,15.33
2018-05-03T09:09:40.482Z,10.67
2018-05-03T09:12:07.860Z,12.00
2018-05-03T09:14:35.381Z,15.10
2018-05-03T09:17:02.751Z,11.43
2018-05-03T09:19:30.187Z,10.17
2018-05-03T09:21:57.563Z,13.33
2018-05-03T09:24:24.972Z,15.07
2018-05-03T09:26:52.351Z,13.60
2018-05-03T09:29:19.744Z,9.87
2018-05-03T09:31:47.138Z,14.30
2018-05-03T09:34:14.486Z,16.47
2018-05-03T09:36:41.909Z,13.83
2018-05-03T09:39:09.330Z,14.47
2018-05-03T09:41:36.687Z,13.17
2018-05-03T09:44:04.079Z,15.40
2018-05-03T09:46:31.449Z,12.27
2018-05-03T09:48:58.794Z,11.53
2018-05-03T09:51:26.216Z,13.00
2018-05-03T09:53:53.581Z,13.40
2018-05-03T09:56:20.936Z,12.57
2018-05-03T09:58:48.352Z,14.00
2018-05-03T10:01:15.735Z,11.83
2018-05-03T10:03:43.120Z,13.67
2018-05-03T10:06:10.619Z,12.97
2018-05-03T10:08:38.358Z,11.30
2018-05-03T10:11:05.783Z,11.60
2018-05-03T10:13:33.163Z,12.23
2018-05-03T10:16:00.678Z,10.67
2018-05-03T10:18:28.108Z,8.80
2018-05-03T10:20:55.498Z,20.23
2018-05-03T10:23:22.891Z,11.73
2018-05-03T10:25:50.246Z,11.27
2018-05-03T10:28:17.594Z,11.50
2018-05-03T10:30:44.967Z,14.43
2018-05-03T10:33:12.339Z,13.77
2018-05-03T10:35:39.802Z,12.57
2018-05-03T10:38:07.134Z,11.60
2018-05-03T10:40:34.474Z,13.43
2018-05-03T10:43:01.871Z,10.10
2018-05-03T10:45:29.219Z,10.67
2018-05-03T10:47:56.680Z,10.00
2018-05-03T10:50:24.083Z,10.90
2018-05-03T10:52:51.479Z,14.13
2018-05-03T10:55:18.830Z,12.53
2018-05-03T10:57:46.195Z,11.23
2018-05-03T11:00:13.562Z,11.90
2018-05-03T11:02:40.937Z,9.53
2018-05-03T11:05:08.284Z,11.20
2018-05-03T11:07:35.665Z,12.13
2018-05-03T11:10:03.053Z,12.97
2018-05-03T11:12:30.440Z,12.40
2018-05-03T11:14:57.848Z,11.30
2018-05-03T11:17:25.239Z,11.53
2018-05-03T11:19:52.599Z,10.90
2018-05-03T11:22:19.972Z,11.37
2018-05-03T11:24:47.333Z,11.90
2018-05-03T11:27:14.724Z,10.03
2018-05-03T11:29:42.082Z,24.80
2018-05-03T11:32:09.473Z,12.87
2018-05-03T11:34:36.923Z,16.27
2018-05-03T11:37:04.299Z,13.70
2018-05-03T11:39:32.649Z,12.20
2018-05-03T11:42:00.034Z,11.97
2018-05-03T11:44:27.412Z,13.83
2018-05-03T11:46:54.815Z,14.33
2018-05-03T11:49:22.234Z,12.20
2018-05-03T11:51:49.587Z,12.00
2018-05-03T11:54:16.942Z,12.70
2018-05-03T11:56:44.479Z,16.60
2018-05-03T11:59:11.944Z,15.43
2018-05-03T12:01:39.323Z,13.23
2018-05-03T12:04:06.693Z,10.20
2018-05-03T12:06:34.063Z,12.57
2018-05-03T12:09:01.430Z,11.17
2018-05-03T12:11:28.774Z,10.00
2018-05-03T12:13:56.168Z,11.10
2018-05-03T12:16:23.585Z,17.57
2018-05-03T12:18:50.954Z,14.00
2018-05-03T12:21:18.403Z,14.10
2018-05-03T12:23:45.777Z,14.37
2018-05-03T12:26:13.151Z,12.87
2018-05-03T12:28:40.610Z,10.87
2018-05-03T12:31:08.027Z,10.40
2018-05-03T12:33:35.419Z,13.30
2018-05-03T12:36:02.793Z,14.47
2018-05-03T12:38:30.150Z,12.07
2018-05-03T12:40:58.729Z,12.60
2018-05-03T12:43:26.098Z,10.70
2018-05-03T12:45:53.440Z,9.80
2018-05-03T12:48:20.795Z,9.63
2018-05-03T12:50:48.163Z,8.70
2018-05-03T12:53:15.535Z,10.07
2018-05-03T12:55:42.910Z,12.70
2018-05-03T12:58:10.276Z,10.30
2018-05-03T13:00:37.672Z,11.13
2018-05-03T13:03:05.075Z,7.57
2018-05-03T13:05:32.544Z,7.73
2018-05-03T13:07:59.914Z,7.97
2018-05-03T13:10:27.324Z,8.00
2018-05-03T13:12:54.699Z,9.00
2018-05-03T13:15:22.048Z,7.67
2018-05-03T13:17:49.474Z,12.13
2018-05-03T13:20:16.878Z,7.53
2018-05-03T13:22:44.181Z,7.07
2018-05-03T13:25:11.556Z,13.87
2018-05-03T13:27:38.943Z,11.63
2018-05-03T13:30:06.544Z,10.90
2018-05-03T13:32:33.903Z,12.37
2018-05-03T13:35:01.309Z,9.33
2018-05-03T13:37:28.685Z,8.80
2018-05-03T13:39:56.044Z,10.80
2018-05-03T13:42:23.535Z,12.80
2018-05-03T13:44:51.538Z,12.17
2018-05-03T13:47:18.964Z,10.43
2018-05-03T13:49:46.372Z,7.27
2018-05-03T13:52:13.758Z,9.40
2018-05-03T13:54:41.130Z,7.30
2018-05-03T13:57:08.569Z,6.53
2018-05-03T13:59:35.879Z,9.50
2018-05-03T14:02:04.303Z,6.30
2018-05-03T14:04:31.642Z,8.00
2018-05-03T14:06:59.028Z,11.00
2018-05-03T14:09:26.436Z,6.67
2018-05-03T14:11:53.774Z,9.37
2018-05-03T14:14:21.147Z,7.77
2018-05-03T14:16:48.578Z,8.57
2018-05-03T14:19:15.924Z,5.90
2018-05-03T14:21:43.321Z,7.27
2018-05-03T14:24:10.708Z,9.40
2018-05-03T14:26:38.088Z,9.27
2018-05-03T14:29:05.558Z,5.47
2018-05-03T14:31:32.924Z,6.67
2018-05-03T14:34:00.268Z,6.73
2018-05-03T14:36:27.675Z,5.90
2018-05-03T14:38:55.026Z,6.37
2018-05-03T14:41:22.445Z,9.63
2018-05-03T14:43:49.826Z,5.10
2018-05-03T14:46:17.160Z,5.30
2018-05-03T14:48:44.499Z,4.97
2018-05-03T14:51:11.921Z,4.47
2018-05-03T14:53:39.300Z,5.50
2018-05-03T14:56:06.702Z,4.50
2018-05-03T14:58:34.075Z,4.30
2018-05-03T15:01:01.515Z,6.40
2018-05-03T15:03:28.899Z,5.00
2018-05-03T15:05:56.280Z,5.50
2018-05-03T15:08:26.695Z,4.80
2018-05-03T15:10:54.054Z,4.30
2018-05-03T15:13:21.405Z,4.60
2018-05-03T15:15:48.787Z,4.90
2018-05-03T15:18:16.150Z,6.30
2018-05-03T15:20:43.511Z,4.47
2018-05-03T15:23:10.852Z,5.10
2018-05-03T15:25:38.332Z,6.80
2018-05-03T15:28:05.715Z,8.57
2018-05-03T15:30:33.136Z,8.00
2018-05-03T15:33:00.485Z,6.90
2018-05-03T15:35:27.987Z,5.20
2018-05-03T15:37:55.351Z,5.70
2018-05-03T15:40:22.723Z,6.73
2018-05-03T15:42:50.082Z,7.30
2018-05-03T15:45:17.582Z,7.90
2018-05-03T15:47:44.927Z,9.00
2018-05-03T15:50:12.329Z,7.97
2018-05-03T15:52:40.346Z,8.30
2018-05-03T15:55:07.718Z,7.43
2018-05-03T15:57:35.070Z,8.77
2018-05-03T16:00:02.453Z,8.97
2018-05-03T16:02:29.824Z,8.23
2018-05-03T16:04:57.425Z,7.17
2018-05-03T16:07:24.808Z,9.67
2018-05-03T16:09:52.178Z,7.43
2018-05-03T16:12:19.525Z,7.43
2018-05-03T16:14:46.952Z,11.53
2018-05-03T16:17:14.290Z,9.33
2018-05-03T16:19:41.662Z,8.70
2018-05-03T16:22:09.065Z,7.00
2018-05-03T16:24:36.466Z,7.77
2018-05-03T16:27:03.881Z,11.13
2018-05-03T16:29:31.194Z,7.47
2018-05-03T16:31:59.065Z,6.90
2018-05-03T16:34:26.488Z,7.67
2018-05-03T16:36:53.888Z,6.87
2018-05-03T16:39:21.263Z,6.70
2018-05-03T16:41:48.679Z,4.73
2018-05-03T16:44:16.052Z,6.57
2018-05-03T16:46:43.632Z,4.30
2018-05-03T16:49:10.991Z,6.40
2018-05-03T16:51:38.368Z,4.60
2018-05-03T16:54:05.834Z,4.00
2018-05-03T16:56:33.218Z,4.53
2018-05-03T16:59:00.619Z,7.20
2018-05-03T17:01:28.015Z,5.80
2018-05-03T17:03:55.354Z,3.93
2018-05-03T17:06:23.635Z,4.37
2018-05-03T17:08:51.000Z,6.57
2018-05-03T17:11:18.343Z,5.07
2018-05-03T17:13:45.724Z,5.97
2018-05-03T17:16:13.098Z,6.17
2018-05-03T17:18:40.459Z,3.17
2018-05-03T17:21:07.849Z,6.07
2018-05-03T17:23:35.879Z,3.53
2018-05-03T17:26:03.298Z,6.80
2018-05-03T17:28:30.711Z,4.07
2018-05-03T17:30:58.079Z,4.33
2018-05-03T17:33:25.464Z,4.60
2018-05-03T17:35:52.835Z,3.23
2018-05-03T17:38:20.199Z,4.13
2018-05-03T17:40:47.628Z,5.63
2018-05-03T17:43:15.016Z,3.43
2018-05-03T17:45:42.420Z,6.00
2018-05-03T17:48:09.770Z,5.03
2018-05-03T17:50:37.245Z,3.90
2018-05-03T17:53:04.619Z,6.43
2018-05-03T17:55:31.963Z,4.20
2018-05-03T17:57:59.348Z,3.93
2018-05-03T18:00:26.710Z,5.10
2018-05-03T18:02:54.258Z,4.50
2018-05-03T18:05:21.661Z,3.57
2018-05-03T18:07:49.041Z,3.73
2018-05-03T18:10:16.407Z,5.10
2018-05-03T18:12:43.786Z,5.43
2018-05-03T18:15:11.125Z,9.00
2018-05-03T18:17:38.501Z,10.63
2018-05-03T18:20:05.867Z,9.63
2018-05-03T18:22:33.215Z,7.70
2018-05-03T18:25:00.562Z,3.43
2018-05-03T18:27:27.993Z,3.13
2018-05-03T18:29:55.369Z,4.90
2018-05-03T18:32:22.881Z,4.50
2018-05-03T18:34:50.332Z,4.27
2018-05-03T18:37:17.706Z,3.17
2018-05-03T18:39:45.083Z,4.90
2018-05-03T18:42:12.458Z,4.30
2018-05-03T18:44:40.785Z,5.67
2018-05-03T18:47:08.187Z,3.53
2018-05-03T18:49:35.635Z,5.90
2018-05-03T18:52:03.038Z,4.23
2018-05-03T18:54:30.364Z,4.57
2018-05-03T18:56:57.784Z,2.60
2018-05-03T19:05:09.247Z,5.50
2018-05-03T19:07:36.709Z,15.53
2018-05-03T19:10:04.162Z,3.43
2018-05-03T19:12:32.508Z,6.17
2018-05-03T19:15:00.043Z,8.30
2018-05-03T19:17:27.448Z,3.00
2018-05-03T19:19:54.828Z,4.97
2018-05-03T19:22:22.199Z,4.07
2018-05-03T19:24:49.574Z,3.53
2018-05-03T19:27:18.045Z,3.90
2018-05-03T19:29:45.465Z,4.00
2018-05-03T19:32:12.827Z,3.57
2018-05-03T19:34:41.169Z,7.53
2018-05-03T19:37:08.632Z,4.17
2018-05-03T19:39:36.076Z,7.17
2018-05-03T19:42:04.547Z,4.53
2018-05-03T19:44:31.892Z,8.43
2018-05-03T19:46:59.315Z,6.40
2018-05-03T19:49:27.751Z,5.53
2018-05-03T19:51:55.274Z,4.87
2018-05-03T19:54:23.680Z,3.50
2018-05-03T19:56:51.125Z,5.33
2018-05-03T19:59:18.597Z,3.23
2018-05-03T20:01:46.238Z,5.20
2018-05-03T20:04:14.754Z,3.13
2018-05-03T20:06:45.576Z,8.23
2018-05-03T20:09:12.950Z,5.20
2018-05-03T20:11:40.338Z,4.47
2018-05-03T20:14:08.749Z,4.27
2018-05-03T20:16:36.243Z,2.87
2018-05-03T20:19:06.992Z,4.70
2018-05-03T20:21:34.511Z,6.37
2018-05-03T20:24:03.945Z,9.60
2018-05-03T20:26:32.263Z,5.67
2018-05-03T20:28:59.649Z,4.17
2018-05-03T20:31:27.055Z,5.70
2018-05-03T20:33:55.356Z,4.80
2018-05-03T20:36:22.817Z,5.60
2018-05-03T20:38:51.190Z,4.30
2018-05-03T20:41:23.565Z,6.20
2018-05-03T20:43:51.000Z,4.00
2018-05-03T20:46:19.409Z,11.30
2018-05-03T20:48:46.893Z,12.50
2018-05-03T20:51:15.410Z,4.00
2018-05-03T20:53:42.812Z,5.17
2018-05-03T20:56:10.202Z,5.07
2018-05-03T20:58:39.558Z,4.50
2018-05-03T21:01:06.914Z,5.73
2018-05-03T21:03:37.607Z,3.17
2018-05-03T21:06:05.905Z,4.47
2018-05-03T21:08:33.284Z,6.00
2018-05-03T21:11:00.830Z,6.40
2018-05-03T21:13:29.244Z,5.83
2018-05-03T21:15:56.674Z,5.47
2018-05-03T21:18:24.099Z,4.50
2018-05-03T21:20:53.774Z,4.00
2018-05-03T21:23:21.200Z,6.83
2018-05-03T21:25:48.624Z,4.43
2018-05-03T21:28:17.974Z,9.37
2018-05-03T21:30:45.400Z,4.80
2018-05-03T21:33:12.745Z,8.43
2018-05-03T21:35:42.075Z,3.57
2018-05-03T21:38:09.452Z,6.90
2018-05-03T21:40:37.803Z,4.40
2018-05-03T21:43:06.248Z,5.57
2018-05-03T21:45:33.704Z,5.13
2018-05-03T21:48:02.005Z,3.20
2018-05-03T21:50:29.367Z,5.07
2018-05-03T21:52:56.791Z,3.07
2018-05-03T21:55:25.218Z,3.87
2018-05-03T21:57:53.655Z,7.77
2018-05-03T22:00:22.191Z,5.87
2018-05-03T22:02:51.479Z,4.63
2018-05-03T22:05:18.851Z,6.47
2018-05-03T22:07:46.209Z,8.40
2018-05-03T22:10:15.632Z,5.50
2018-05-03T22:12:43.082Z,7.73
2018-05-03T22:15:10.469Z,5.03
2018-05-03T22:17:38.816Z,4.73
2018-05-03T22:20:06.192Z,5.50
2018-05-03T22:22:33.623Z,4.17
2018-05-03T22:25:01.022Z,4.20
2018-05-03T22:27:28.491Z,5.37
2018-05-03T22:29:55.867Z,7.60
2018-05-03T22:32:25.375Z,7.70
2018-05-03T22:34:52.807Z,3.63
2018-05-03T22:37:21.009Z,8.50
2018-05-03T22:39:48.355Z,5.13
2018-05-03T22:42:15.746Z,8.63
2018-05-03T22:44:43.103Z,6.50
2018-05-03T22:47:11.480Z,4.93
2018-05-03T22:49:39.843Z,7.80
2018-05-03T22:52:07.232Z,7.07
2018-05-03T22:54:34.671Z,9.83
2018-05-03T22:57:03.016Z,6.10
2018-05-03T22:59:33.520Z,4.90
2018-05-03T23:02:01.934Z,5.20
2018-05-03T23:04:29.316Z,4.57
2018-05-03T23:06:56.711Z,8.53
2018-05-03T23:09:24.094Z,4.13
2018-05-03T23:11:51.442Z,5.20
2018-05-03T23:14:19.834Z,5.53
2018-05-03T23:16:47.228Z,6.80
2018-05-03T23:19:14.630Z,5.83
2018-05-03T23:21:42.008Z,6.63
2018-05-03T23:24:11.370Z,7.73
2018-05-03T23:26:38.856Z,5.53
2018-05-03T23:29:06.270Z,6.30
2018-05-03T23:31:33.662Z,5.40
2018-05-03T23:34:01.125Z,7.57
2018-05-03T23:36:28.509Z,4.70
2018-05-03T23:38:57.883Z,7.40
2018-05-03T23:41:25.251Z,7.23
2018-05-03T23:43:53.607Z,8.60
2018-05-03T23:46:20.992Z,6.13
2018-05-03T23:48:49.338Z,9.27
2018-05-03T23:51:16.722Z,7.20
2018-05-03T23:53:44.080Z,7.07
2018-05-03T23:56:12.461Z,5.03
2018-05-03T23:58:40.801Z,14.33
